Nearby METAR Reports

 

KSWO - Stillwater, Oklahoma, USA
Distance from station: S 17mi, 28km
Updated: Sat, 01-22-2022 1:53am CST
Clear
Clear
 Wind from calm
Wind: Calm
Temperature: 25°F , -4°C
Dew Point: 9°F , -13°C
Humidity: 50%
Barometer: 30.43 inHg , 1030.5 hPa
Clouds: Clear
Visibility: 10 miles , 16 km
2022/01/22 07:53 KSWO 220753Z AUTO 00000KT 10SM CLR M04/M13 A3043 RMK AO2 SLP312 T10391128
KCFV - Coffeyville, Kansas, USA
Distance from station: ENE 93mi, 150km
Updated: Sat, 01-22-2022 1:52am CST
Clear
Clear
 Wind from S
Wind: S 3 mph , 6 km/h
Temperature: 19°F , -7°C
Dew Point: 10°F , -12°C
Humidity: 68%
Barometer: 30.44 inHg , 1030.8 hPa
Clouds: Clear
Visibility: 10 miles , 16 km
2022/01/22 07:52 KCFV 220752Z AUTO 17003KT 10SM CLR M07/M12 A3044 RMK AO2 SLP316 T10671122 TSNO
KIDP - Independence, Kansas, USA
Distance from station: NE 86mi, 138km
Updated: Sat, 01-22-2022 2:15am CST
Clear
Clear
 Wind from SSW
Wind: SSW 5 mph , 7 km/h
Temperature: 19°F , -7°C
Wind Chill: 12°F , -11°C
Dew Point: 9°F , -13°C
Humidity: 63%
Barometer: 30.45 inHg , 1031.2 hPa
Clouds: Clear
Visibility: 10 miles , 16 km
2022/01/22 08:15 KIDP 220815Z AUTO 21004KT 10SM CLR M07/M13 A3045 RMK AO2 T10721127
 
KIAB - Mcconnell Afb, Kansas, USA
Distance from station: N 84mi, 135km
Updated: Sat, 01-22-2022 1:56am CST
Few Clouds
Few Clouds
 Wind from SW
Wind: SW 9 mph , 15 km/h
Temperature: 21°F , -6°C
Wind Chill: 11°F , -12°C
Dew Point: 5°F , -15°C
Humidity: 49%
Barometer: 30.38 inHg , 1028.8 hPa
Clouds: Few Clouds
Visibility: 10 miles , 16 km
Cloud details: Few Clouds 16000 ft
Few Clouds 20000 ft
2022/01/22 07:56 KIAB 220756Z AUTO 22008KT 10SM FEW160 FEW200 M06/M15 A3038 RMK AO2 SLP308 T10601150 $
KICT - Wichita, Kansas, USA
Distance from station: NNW 88mi, 142km
Updated: Sat, 01-22-2022 1:53am CST
Mostly cloudy
Mostly cloudy
 Wind from S
Wind: S 5 mph , 7 km/h
Temperature: 21°F , -6°C
Wind Chill: 14°F , -10°C
Dew Point: 3°F , -16°C
Humidity: 45%
Barometer: 30.38 inHg , 1028.8 hPa
Clouds: Mostly cloudy
Visibility: 10 miles , 16 km
Cloud details: Partly cloudy 15000 ft
Mostly cloudy 25000 ft
2022/01/22 07:53 KICT 220753Z 19004KT 10SM SCT150 BKN250 M06/M16 A3038 RMK AO2 SLP302 T10561156
KAAO - Wichita/Jabara, Kansas, USA
Distance from station: N 93mi, 149km
Updated: Sat, 01-22-2022 1:54am CST
Clear
Clear
 Wind from SSW
Wind: SSW 7 mph , 11 km/h
Temperature: 21°F , -6°C
Wind Chill: 12°F , -11°C
Dew Point: 3°F , -16°C
Humidity: 45%
Barometer: 30.38 inHg , 1028.8 hPa
Clouds: Clear
Visibility: 10 miles , 16 km
2022/01/22 07:54 KAAO 220754Z AUTO 20006KT 10SM CLR M06/M16 A3038 RMK AO2 SLP305 T10561156
 
KWLD - Winfield/Arkansa, Kansas, USA
Distance from station: N 52mi, 84km
Updated: Sat, 01-22-2022 1:54am CST
Clear
Clear
 Wind from S
Wind: S 5 mph , 7 km/h
Temperature: 21°F , -6°C
Wind Chill: 14°F , -10°C
Dew Point: 7°F , -14°C
Humidity: 54%
Barometer: 30.42 inHg , 1030.1 hPa
Clouds: Clear
Visibility: 10 miles , 16 km
2022/01/22 07:54 KWLD 220754Z AUTO 17004KT 10SM CLR M06/M14 A3042 RMK AO2 SLP313 T10561139
KAVK - Alva, Oklahoma, USA
Distance from station: WNW 94mi, 152km
Updated: Sat, 01-22-2022 2:15am CST
Mostly cloudy
Mostly cloudy
 Wind from SSW
Wind: SSW 7 mph , 11 km/h
Temperature: 21°F , -6°C
Wind Chill: 12°F , -11°C
Dew Point: 5°F , -15°C
Humidity: 49%
Barometer: 30.39 inHg , 1029.1 hPa
Clouds: Mostly cloudy
Visibility: 10 miles , 16 km
Cloud details: Few Clouds 3400 ft
Partly cloudy 4200 ft
Mostly cloudy 6000 ft
2022/01/22 08:15 KAVK 220815Z AUTO 21006KT 10SM FEW034 SCT042 BKN060 M06/M15 A3039 RMK AO2
KBVO - Bartlesville, Oklahoma, USA
Distance from station: ENE 61mi, 98km
Updated: Sat, 01-22-2022 1:53am CST
Clear
Clear
 Wind from calm
Wind: Calm
Temperature: 16°F , -9°C
Dew Point: 10°F , -12°C
Humidity: 79%
Barometer: 30.46 inHg , 1031.5 hPa
Clouds: Clear
Visibility: 10 miles , 16 km
2022/01/22 07:53 KBVO 220753Z AUTO 00000KT 10SM CLR M09/M12 A3046 RMK AO2 SLP321 T10891122
 
KBKN - Blackwell, Oklahoma, USA
Distance from station: NW 29mi, 47km
Updated: Sat, 01-22-2022 2:15am CST
Clear
Clear
 Wind from calm
Wind: Calm
Temperature: 23°F , -5°C
Dew Point: 5°F , -15°C
Humidity: 46%
Barometer: 30.43 inHg , 1030.5 hPa
Clouds: Clear
Visibility: 10 miles , 16 km
2022/01/22 08:15 KBKN 220815Z AUTO 00000KT 10SM CLR M05/M15 A3043 RMK AO2
KGCM - Claremore, Oklahoma, USA
Distance from station: E 86mi, 138km
Updated: Sat, 01-22-2022 2:15am CST
Clear
Clear
 Wind from calm
Wind: Calm
Temperature: 18°F , -8°C
Dew Point: 12°F , -11°C
Humidity: 79%
Barometer: 30.48 inHg , 1032.2 hPa
Clouds: Clear
Visibility: 10 miles , 16 km
2022/01/22 08:15 KGCM 220815Z AUTO 00000KT 10SM CLR M08/M11 A3048 RMK AO2
KCQB - Chandler, Oklahoma, USA
Distance from station: SSE 50mi, 80km
Updated: Sat, 01-22-2022 2:10am CST
Clear
Clear
 Wind from S
Wind: S 6 mph , 9 km/h
Temperature: 23°F , -5°C
Wind Chill: 16°F , -9°C
Dew Point: 9°F , -13°C
Humidity: 54%
Barometer: 30.43 inHg , 1030.5 hPa
Clouds: Clear
Visibility: 10 miles , 16 km
2022/01/22 08:10 KCQB 220810Z AUTO 17005KT 10SM CLR M05/M13 A3043 RMK AO2 T10481130
 
KCUH - Cushing, Oklahoma, USA
Distance from station: SSE 35mi, 57km
Updated: Sat, 01-22-2022 2:15am CST
Clear
Clear
 Wind from calm
Wind: Calm
Temperature: 23°F , -5°C
Dew Point: 10°F , -12°C
Humidity: 58%
Barometer: 30.44 inHg , 1030.8 hPa
Clouds: Clear
Visibility: 10 miles , 16 km
2022/01/22 08:15 KCUH 220815Z AUTO 00000KT 10SM CLR M05/M12 A3044 RMK AO2 T10501125
KRQO - El Reno Muni, Oklahoma, USA
Distance from station: SW 85mi, 137km
Updated: Sat, 01-22-2022 2:15am CST
Clear
Clear
 Wind from S
Wind: S 7 mph , 11 km/h
Temperature: 23°F , -5°C
Wind Chill: 15°F , -9°C
Dew Point: 9°F , -13°C
Humidity: 54%
Barometer: 30.41 inHg , 1029.8 hPa
Clouds: Clear
Visibility: 10 miles , 16 km
2022/01/22 08:15 KRQO 220815Z AUTO 19006KT 10SM CLR M05/M13 A3041 RMK AO2 T10481135
KEND - Enid/Vance Afb, Oklahoma, USA
Distance from station: W 50mi, 81km
Updated: Sat, 01-22-2022 1:56am CST
Mostly cloudy
Mostly cloudy
 Wind from calm
Wind: Calm
Temperature: 21°F , -6°C
Dew Point: 5°F , -15°C
Humidity: 49%
Barometer: 30.40 inHg , 1029.5 hPa
Clouds: Mostly cloudy
Visibility: 10 miles , 16 km
Cloud details: Mostly cloudy 22000 ft
2022/01/22 07:56 KEND 220756Z AUTO 00000KT 10SM BKN220 M06/M15 A3040 RMK AO2 SLP311 T10591152
 
KWDG - Enid/Woodring, Oklahoma, USA
Distance from station: W 42mi, 67km
Updated: Sat, 01-22-2022 2:15am CST
Clear
Clear
 Wind from calm
Wind: Calm
Temperature: 21°F , -6°C
Dew Point: 5°F , -15°C
Humidity: 49%
Barometer: 30.41 inHg , 1029.8 hPa
Clouds: Clear
Visibility: 10 miles , 16 km
2022/01/22 08:15 KWDG 220815Z AUTO 00000KT 10SM CLR M06/M15 A3041 RMK AO2
KGOK - Guthrie, Oklahoma, USA
Distance from station: SSW 44mi, 71km
Updated: Sat, 01-22-2022 1:53am CST
Clear
Clear
 Wind from S
Wind: S 5 mph , 7 km/h
Temperature: 25°F , -4°C
Wind Chill: 19°F , -7°C
Dew Point: 9°F , -13°C
Humidity: 50%
Barometer: 30.42 inHg , 1030.1 hPa
Clouds: Clear
2022/01/22 07:53 KGOK 220753Z AUTO 17004KT CLR M04/M13 A3042 RMK AO2 SLP312 T10441128 $
KOUN - Norman/Westheime, Oklahoma, USA
Distance from station: SSW 84mi, 136km
Updated: Sat, 01-22-2022 2:15am CST
Clear
Clear
 Wind from NE
Wind: NE 3 mph , 6 km/h
Temperature: 21°F , -6°C
Dew Point: 10°F , -12°C
Humidity: 63%
Barometer: 30.40 inHg , 1029.5 hPa
Clouds: Clear
Visibility: 10 miles , 16 km
2022/01/22 08:15 KOUN 220815Z AUTO 04003KT 10SM CLR M06/M12 A3040 RMK AO2 T10581122
 
KOKC - Oklahoma City, Oklahoma, USA
Distance from station: SSW 78mi, 126km
Updated: Sat, 01-22-2022 1:52am CST
Mostly cloudy
Mostly cloudy
 Wind from calm
Wind: Calm
Temperature: 25°F , -4°C
Dew Point: 7°F , -14°C
Humidity: 46%
Barometer: 30.41 inHg , 1029.8 hPa
Clouds: Mostly cloudy
Visibility: 10 miles , 16 km
Cloud details: Mostly cloudy 20000 ft
2022/01/22 07:52 KOKC 220752Z 00000KT 10SM BKN200 M04/M14 A3041 RMK AO2 SLP311 T10391144 $
KPWA - Okla City/Wiley, Oklahoma, USA
Distance from station: SSW 70mi, 113km
Updated: Sat, 01-22-2022 1:53am CST
Clear
Clear
 Wind from S
Wind: S 5 mph , 7 km/h
Temperature: 27°F , -3°C
Wind Chill: 21°F , -6°C
Dew Point: 9°F , -13°C
Humidity: 46%
Barometer: 30.41 inHg , 1029.8 hPa
Clouds: Clear
Visibility: 10 miles , 16 km
2022/01/22 07:53 KPWA 220753Z AUTO 18004KT 10SM CLR M03/M13 A3041 RMK AO2 SLP309 T10281133
KRCE - Okla City/Page, Oklahoma, USA
Distance from station: SW 78mi, 126km
Updated: Sat, 01-22-2022 2:15am CST
Clear
Clear
 Wind from SSE
Wind: SSE 6 mph , 9 km/h
Temperature: 21°F , -6°C
Wind Chill: 13°F , -11°C
Dew Point: 7°F , -14°C
Humidity: 54%
Barometer: 30.40 inHg , 1029.5 hPa
Clouds: Clear
Visibility: 10 miles , 16 km
2022/01/22 08:15 KRCE 220815Z AUTO 16005KT 10SM CLR M06/M14 A3040 RMK AO2
 
KOKM - Okmulgee, Oklahoma, USA
Distance from station: SE 79mi, 127km
Updated: Sat, 01-22-2022 2:15am CST
Clear
Clear
 Wind from calm
Wind: Calm
Temperature: 19°F , -7°C
Dew Point: 14°F , -10°C
Humidity: 79%
Barometer: 30.45 inHg , 1031.2 hPa
Clouds: Clear
Visibility: 10 miles , 16 km
2022/01/22 08:15 KOKM 220815Z AUTO 00000KT 10SM CLR M07/M10 A3045 RMK AO2 T10701104
KPNC - Ponca City, Oklahoma, USA
Distance from station: N 22mi, 36km
Updated: Sat, 01-22-2022 1:53am CST
Clear
Clear
 Wind from S
Wind: S 3 mph , 6 km/h
Temperature: 27°F , -3°C
Dew Point: 7°F , -14°C
Humidity: 43%
Barometer: 30.43 inHg , 1030.5 hPa
Clouds: Clear
Visibility: 10 miles , 16 km
2022/01/22 07:53 KPNC 220753Z AUTO 18003KT 10SM CLR M03/M14 A3043 RMK AO2 SLP313 T10281139 TSNO $
KSNL - Shawnee, Oklahoma, USA
Distance from station: S 74mi, 119km
Updated: Sat, 01-22-2022 2:15am CST
Clear
Clear
 Wind from calm
Wind: Calm
Temperature: 25°F , -4°C
Dew Point: 3°F , -16°C
Humidity: 39%
Barometer: 30.43 inHg , 1030.5 hPa
Clouds: Clear
Visibility: 10 miles , 16 km
2022/01/22 08:15 KSNL 220815Z AUTO 00000KT 10SM CLR M04/M16 A3043 RMK AO2 T10441160